Bloemendaal, Netherlands
Current Conditions -  °F | °C
As of 5:55 AM on Monday 22 Dec 2014 (Local Time) from EHAM Reporting Station
Broken Clouds Broken Clouds  
Wind Chill: 54°   Ceiling: 1000
Heat Index: 54°   Visibility: 6mi
Dew Point: 50°   Wind: 35mph
Humidity: 88%   Direction: 230°SW
Pressure: 29.94"   Gusts: 52mph
Location:  52.4°N, 4.62°E
Report Text: EHAM 220455Z 23030G45KT 9999 FEW009 BKN010 12/10 Q1014 TEMPOBKN009
Loading
Personal Weather Stations






























Interactive Weather Map New forecast layout! Learn more

10-Day Weather Forecast

Advertisements
Track Severe Weather on mobile